sensor_id;sensor_type;location;lat;lon;timestamp;temperature;humidity
42479;DHT22;28110;47.080;9.476;2022-09-09T00:00:40;17.40;99.90
42479;DHT22;28110;47.080;9.476;2022-09-09T00:03:18;17.40;99.90
42479;DHT22;28110;47.080;9.476;2022-09-09T00:06:03;17.40;99.90
42479;DHT22;28110;47.080;9.476;2022-09-09T00:08:51;17.50;99.90
42479;DHT22;28110;47.080;9.476;2022-09-09T00:11:26;17.50;99.90
42479;DHT22;28110;47.080;9.476;2022-09-09T00:13:54;17.50;99.90
42479;DHT22;28110;47.080;9.476;2022-09-09T00:16:22;17.50;99.90
42479;DHT22;28110;47.080;9.476;2022-09-09T00:21:18;17.40;99.90
42479;DHT22;28110;47.080;9.476;2022-09-09T00:23:50;17.40;99.90
42479;DHT22;28110;47.080;9.476;2022-09-09T00:26:40;17.40;99.90
42479;DHT22;28110;47.080;9.476;2022-09-09T00:31:33;17.40;99.90
42479;DHT22;28110;47.080;9.476;2022-09-09T00:34:11;17.30;99.90
42479;DHT22;28110;47.080;9.476;2022-09-09T00:36:38;17.30;99.90
42479;DHT22;28110;47.080;9.476;2022-09-09T00:39:04;17.30;99.90
42479;DHT22;28110;47.080;9.476;2022-09-09T00:44:34;17.20;99.90
42479;DHT22;28110;47.080;9.476;2022-09-09T00:50:05;17.20;99.90
42479;DHT22;28110;47.080;9.476;2022-09-09T00:58:08;17.20;99.90
42479;DHT22;28110;47.080;9.476;2022-09-09T01:00:55;17.30;99.90
42479;DHT22;28110;47.080;9.476;2022-09-09T01:06:30;17.40;99.90
42479;DHT22;28110;47.080;9.476;2022-09-09T01:09:04;17.30;99.90
42479;DHT22;28110;47.080;9.476;2022-09-09T01:17:16;17.30;99.90
42479;DHT22;28110;47.080;9.476;2022-09-09T01:19:45;17.50;99.90
42479;DHT22;28110;47.080;9.476;2022-09-09T01:22:47;17.40;99.90
42479;DHT22;28110;47.080;9.476;2022-09-09T01:28:19;17.50;99.90
42479;DHT22;28110;47.080;9.476;2022-09-09T01:30:47;17.50;99.90
42479;DHT22;28110;47.080;9.476;2022-09-09T01:33:15;17.50;99.90
42479;DHT22;28110;47.080;9.476;2022-09-09T01:38:09;17.40;99.90
42479;DHT22;28110;47.080;9.476;2022-09-09T01:40:35;17.40;99.90
42479;DHT22;28110;47.080;9.476;2022-09-09T01:43:01;17.40;99.90
42479;DHT22;28110;47.080;9.476;2022-09-09T01:45:28;17.40;99.90
42479;DHT22;28110;47.080;9.476;2022-09-09T01:47:54;17.40;99.90
42479;DHT22;28110;47.080;9.476;2022-09-09T01:50:20;17.40;99.90
42479;DHT22;28110;47.080;9.476;2022-09-09T01:52:50;17.30;99.90
42479;DHT22;28110;47.080;9.476;2022-09-09T01:55:19;17.30;99.90
42479;DHT22;28110;47.080;9.476;2022-09-09T01:58:29;17.30;99.90
42479;DHT22;28110;47.080;9.476;2022-09-09T02:01:06;17.30;99.90
42479;DHT22;28110;47.080;9.476;2022-09-09T02:03:35;17.20;99.90
42479;DHT22;28110;47.080;9.476;2022-09-09T02:06:36;17.20;99.90
42479;DHT22;28110;47.080;9.476;2022-09-09T02:09:05;17.20;99.90
42479;DHT22;28110;47.080;9.476;2022-09-09T02:11:33;17.10;99.90
42479;DHT22;28110;47.080;9.476;2022-09-09T02:14:22;17.10;99.90
42479;DHT22;28110;47.080;9.476;2022-09-09T02:16:57;17.10;99.90
42479;DHT22;28110;47.080;9.476;2022-09-09T02:19:37;17.10;99.90
42479;DHT22;28110;47.080;9.476;2022-09-09T02:22:04;17.10;99.90
42479;DHT22;28110;47.080;9.476;2022-09-09T02:24:33;17.10;99.90
42479;DHT22;28110;47.080;9.476;2022-09-09T02:27:01;17.00;99.90
42479;DHT22;28110;47.080;9.476;2022-09-09T02:29:34;17.00;99.90
42479;DHT22;28110;47.080;9.476;2022-09-09T02:32:05;16.90;99.90
42479;DHT22;28110;47.080;9.476;2022-09-09T02:34:35;16.90;99.90
42479;DHT22;28110;47.080;9.476;2022-09-09T02:37:03;16.90;99.90
42479;DHT22;28110;47.080;9.476;2022-09-09T02:39:31;16.90;99.90
42479;DHT22;28110;47.080;9.476;2022-09-09T02:41:57;16.90;99.90
42479;DHT22;28110;47.080;9.476;2022-09-09T02:44:22;16.80;99.90
42479;DHT22;28110;47.080;9.476;2022-09-09T02:50:12;16.80;99.90
42479;DHT22;28110;47.080;9.476;2022-09-09T02:55:28;16.70;99.90
42479;DHT22;28110;47.080;9.476;2022-09-09T02:57:58;16.60;99.90
42479;DHT22;28110;47.080;9.476;2022-09-09T03:00:26;16.60;99.90
42479;DHT22;28110;47.080;9.476;2022-09-09T03:02:53;16.60;99.90
42479;DHT22;28110;47.080;9.476;2022-09-09T03:05:20;16.60;99.90
42479;DHT22;28110;47.080;9.476;2022-09-09T03:07:46;16.50;99.90
42479;DHT22;28110;47.080;9.476;2022-09-09T03:10:11;16.50;99.90
42479;DHT22;28110;47.080;9.476;2022-09-09T03:12:37;16.50;99.90
42479;DHT22;28110;47.080;9.476;2022-09-09T03:15:04;16.50;99.90
42479;DHT22;28110;47.080;9.476;2022-09-09T03:17:30;16.50;99.90
42479;DHT22;28110;47.080;9.476;2022-09-09T03:19:56;16.50;99.90
42479;DHT22;28110;47.080;9.476;2022-09-09T03:22:23;16.40;99.90
42479;DHT22;28110;47.080;9.476;2022-09-09T03:24:48;16.40;99.90
42479;DHT22;28110;47.080;9.476;2022-09-09T03:27:14;16.30;99.90
42479;DHT22;28110;47.080;9.476;2022-09-09T03:29:40;16.30;99.90
42479;DHT22;28110;47.080;9.476;2022-09-09T03:32:05;16.30;99.90
42479;DHT22;28110;47.080;9.476;2022-09-09T03:34:31;16.30;99.90
42479;DHT22;28110;47.080;9.476;2022-09-09T03:36:57;16.30;99.90
42479;DHT22;28110;47.080;9.476;2022-09-09T03:39:22;16.20;99.90
42479;DHT22;28110;47.080;9.476;2022-09-09T03:41:48;16.20;99.90
42479;DHT22;28110;47.080;9.476;2022-09-09T03:44:14;16.20;99.90
42479;DHT22;28110;47.080;9.476;2022-09-09T03:46:40;16.20;99.90
42479;DHT22;28110;47.080;9.476;2022-09-09T03:49:05;16.20;99.90
42479;DHT22;28110;47.080;9.476;2022-09-09T03:51:31;16.20;99.90
42479;DHT22;28110;47.080;9.476;2022-09-09T03:53:56;16.20;99.90
42479;DHT22;28110;47.080;9.476;2022-09-09T03:56:23;16.10;99.90
42479;DHT22;28110;47.080;9.476;2022-09-09T03:58:49;16.10;99.90
42479;DHT22;28110;47.080;9.476;2022-09-09T04:01:15;16.10;99.90
42479;DHT22;28110;47.080;9.476;2022-09-09T04:03:43;16.10;99.90
42479;DHT22;28110;47.080;9.476;2022-09-09T04:06:10;16.10;99.90
42479;DHT22;28110;47.080;9.476;2022-09-09T04:08:39;16.10;99.90
42479;DHT22;28110;47.080;9.476;2022-09-09T04:11:04;16.10;99.90
42479;DHT22;28110;47.080;9.476;2022-09-09T04:13:32;16.10;99.90
42479;DHT22;28110;47.080;9.476;2022-09-09T04:16:00;16.10;99.90
42479;DHT22;28110;47.080;9.476;2022-09-09T04:18:26;16.10;99.90
42479;DHT22;28110;47.080;9.476;2022-09-09T04:20:53;16.10;99.90
42479;DHT22;28110;47.080;9.476;2022-09-09T04:23:20;16.00;99.90
42479;DHT22;28110;47.080;9.476;2022-09-09T04:25:50;16.00;99.90
42479;DHT22;28110;47.080;9.476;2022-09-09T04:28:17;15.90;99.90
42479;DHT22;28110;47.080;9.476;2022-09-09T04:30:44;15.90;99.90
42479;DHT22;28110;47.080;9.476;2022-09-09T04:33:10;15.90;99.90
42479;DHT22;28110;47.080;9.476;2022-09-09T04:35:38;15.90;99.90
42479;DHT22;28110;47.080;9.476;2022-09-09T04:38:05;15.90;99.90
42479;DHT22;28110;47.080;9.476;2022-09-09T04:40:32;15.90;99.90
42479;DHT22;28110;47.080;9.476;2022-09-09T04:42:59;15.90;99.90
42479;DHT22;28110;47.080;9.476;2022-09-09T04:45:24;15.90;99.90
42479;DHT22;28110;47.080;9.476;2022-09-09T04:47:51;15.90;99.90
42479;DHT22;28110;47.080;9.476;2022-09-09T04:50:18;15.90;99.90
42479;DHT22;28110;47.080;9.476;2022-09-09T04:52:44;15.80;99.90
42479;DHT22;28110;47.080;9.476;2022-09-09T04:55:09;15.80;99.90
42479;DHT22;28110;47.080;9.476;2022-09-09T04:57:35;15.90;99.90
42479;DHT22;28110;47.080;9.476;2022-09-09T05:00:01;15.80;99.90
42479;DHT22;28110;47.080;9.476;2022-09-09T05:02:27;15.80;99.90
42479;DHT22;28110;47.080;9.476;2022-09-09T05:04:53;15.80;99.90
42479;DHT22;28110;47.080;9.476;2022-09-09T05:07:19;15.80;99.90
42479;DHT22;28110;47.080;9.476;2022-09-09T05:09:44;15.80;99.90
42479;DHT22;28110;47.080;9.476;2022-09-09T05:12:10;15.90;99.90
42479;DHT22;28110;47.080;9.476;2022-09-09T05:14:36;16.00;99.90
42479;DHT22;28110;47.080;9.476;2022-09-09T05:17:03;16.00;99.90
42479;DHT22;28110;47.080;9.476;2022-09-09T05:19:28;16.10;99.90
42479;DHT22;28110;47.080;9.476;2022-09-09T05:21:56;16.10;99.90
42479;DHT22;28110;47.080;9.476;2022-09-09T05:24:22;16.30;99.90
42479;DHT22;28110;47.080;9.476;2022-09-09T05:26:50;16.50;99.90
42479;DHT22;28110;47.080;9.476;2022-09-09T05:29:16;16.60;99.90
42479;DHT22;28110;47.080;9.476;2022-09-09T05:31:44;16.50;99.90
42479;DHT22;28110;47.080;9.476;2022-09-09T05:34:10;16.50;99.90
42479;DHT22;28110;47.080;9.476;2022-09-09T05:36:35;16.60;99.90
42479;DHT22;28110;47.080;9.476;2022-09-09T05:39:01;16.50;99.90
42479;DHT22;28110;47.080;9.476;2022-09-09T05:41:26;16.60;99.90
42479;DHT22;28110;47.080;9.476;2022-09-09T05:43:54;16.50;99.90
42479;DHT22;28110;47.080;9.476;2022-09-09T05:46:21;16.40;99.90
42479;DHT22;28110;47.080;9.476;2022-09-09T05:48:48;16.40;99.90
42479;DHT22;28110;47.080;9.476;2022-09-09T05:51:18;16.40;99.90
42479;DHT22;28110;47.080;9.476;2022-09-09T05:53:46;16.40;99.90
42479;DHT22;28110;47.080;9.476;2022-09-09T05:56:26;16.50;99.90
42479;DHT22;28110;47.080;9.476;2022-09-09T05:58:53;16.60;99.90
42479;DHT22;28110;47.080;9.476;2022-09-09T06:01:24;16.60;99.90
42479;DHT22;28110;47.080;9.476;2022-09-09T06:03:51;16.70;99.90
42479;DHT22;28110;47.080;9.476;2022-09-09T06:06:19;16.70;99.90
42479;DHT22;28110;47.080;9.476;2022-09-09T06:08:46;16.70;99.90
42479;DHT22;28110;47.080;9.476;2022-09-09T06:11:15;16.70;99.90
42479;DHT22;28110;47.080;9.476;2022-09-09T06:13:41;16.80;99.90
42479;DHT22;28110;47.080;9.476;2022-09-09T06:16:15;16.80;99.90
42479;DHT22;28110;47.080;9.476;2022-09-09T06:18:41;16.80;99.90
42479;DHT22;28110;47.080;9.476;2022-09-09T06:21:14;16.90;99.90
42479;DHT22;28110;47.080;9.476;2022-09-09T06:23:40;16.90;99.90
42479;DHT22;28110;47.080;9.476;2022-09-09T06:26:09;17.00;99.90
42479;DHT22;28110;47.080;9.476;2022-09-09T06:28:36;17.10;99.90
42479;DHT22;28110;47.080;9.476;2022-09-09T06:31:07;17.10;99.90
42479;DHT22;28110;47.080;9.476;2022-09-09T06:33:34;17.10;99.90
42479;DHT22;28110;47.080;9.476;2022-09-09T06:36:01;17.10;99.90
42479;DHT22;28110;47.080;9.476;2022-09-09T06:38:27;17.20;99.90
42479;DHT22;28110;47.080;9.476;2022-09-09T06:40:57;17.20;99.90
42479;DHT22;28110;47.080;9.476;2022-09-09T06:43:24;17.20;99.90
42479;DHT22;28110;47.080;9.476;2022-09-09T06:45:55;17.20;99.90
42479;DHT22;28110;47.080;9.476;2022-09-09T06:48:21;17.10;99.90
42479;DHT22;28110;47.080;9.476;2022-09-09T06:50:47;17.10;99.90
42479;DHT22;28110;47.080;9.476;2022-09-09T06:53:16;17.20;99.90
42479;DHT22;28110;47.080;9.476;2022-09-09T06:55:42;17.20;99.90
42479;DHT22;28110;47.080;9.476;2022-09-09T06:58:09;17.30;99.90
42479;DHT22;28110;47.080;9.476;2022-09-09T07:00:35;17.30;99.90
42479;DHT22;28110;47.080;9.476;2022-09-09T07:03:03;17.20;99.90
42479;DHT22;28110;47.080;9.476;2022-09-09T07:05:28;17.30;99.90
42479;DHT22;28110;47.080;9.476;2022-09-09T07:07:54;17.30;99.90
42479;DHT22;28110;47.080;9.476;2022-09-09T07:10:19;17.40;99.90
42479;DHT22;28110;47.080;9.476;2022-09-09T07:12:50;17.60;99.90
42479;DHT22;28110;47.080;9.476;2022-09-09T07:15:17;17.60;99.90
42479;DHT22;28110;47.080;9.476;2022-09-09T07:17:44;17.60;99.90
42479;DHT22;28110;47.080;9.476;2022-09-09T07:20:10;17.70;99.90
42479;DHT22;28110;47.080;9.476;2022-09-09T07:22:35;17.80;99.90
42479;DHT22;28110;47.080;9.476;2022-09-09T07:25:01;17.70;99.90
42479;DHT22;28110;47.080;9.476;2022-09-09T07:27:27;17.70;99.90
42479;DHT22;28110;47.080;9.476;2022-09-09T07:29:53;17.70;99.90
42479;DHT22;28110;47.080;9.476;2022-09-09T07:32:19;17.80;99.90
42479;DHT22;28110;47.080;9.476;2022-09-09T07:34:45;17.80;99.90
42479;DHT22;28110;47.080;9.476;2022-09-09T07:37:13;17.80;99.90
42479;DHT22;28110;47.080;9.476;2022-09-09T07:39:39;17.90;99.90
42479;DHT22;28110;47.080;9.476;2022-09-09T07:42:05;18.00;99.90
42479;DHT22;28110;47.080;9.476;2022-09-09T07:44:31;18.00;99.90
42479;DHT22;28110;47.080;9.476;2022-09-09T07:47:00;18.00;99.90
42479;DHT22;28110;47.080;9.476;2022-09-09T07:49:26;18.00;99.90
42479;DHT22;28110;47.080;9.476;2022-09-09T07:51:52;18.00;99.90
42479;DHT22;28110;47.080;9.476;2022-09-09T07:54:19;18.00;99.90
42479;DHT22;28110;47.080;9.476;2022-09-09T07:56:46;18.00;99.90
42479;DHT22;28110;47.080;9.476;2022-09-09T07:59:12;18.00;99.90
42479;DHT22;28110;47.080;9.476;2022-09-09T08:01:48;18.10;99.90
42479;DHT22;28110;47.080;9.476;2022-09-09T08:04:16;18.10;99.90
42479;DHT22;28110;47.080;9.476;2022-09-09T08:06:57;18.20;99.90
42479;DHT22;28110;47.080;9.476;2022-09-09T08:09:23;18.30;99.90
42479;DHT22;28110;47.080;9.476;2022-09-09T08:11:53;18.30;99.90
42479;DHT22;28110;47.080;9.476;2022-09-09T08:14:19;18.30;99.90
42479;DHT22;28110;47.080;9.476;2022-09-09T08:16:47;18.20;99.90
42479;DHT22;28110;47.080;9.476;2022-09-09T08:19:13;18.20;99.90
42479;DHT22;28110;47.080;9.476;2022-09-09T08:21:41;18.00;99.90
42479;DHT22;28110;47.080;9.476;2022-09-09T08:24:08;17.90;99.90
42479;DHT22;28110;47.080;9.476;2022-09-09T08:26:36;17.80;99.90
42479;DHT22;28110;47.080;9.476;2022-09-09T08:29:04;17.70;99.90
42479;DHT22;28110;47.080;9.476;2022-09-09T08:31:36;17.70;99.90
42479;DHT22;28110;47.080;9.476;2022-09-09T08:34:03;17.60;99.90
42479;DHT22;28110;47.080;9.476;2022-09-09T08:36:31;17.50;99.90
42479;DHT22;28110;47.080;9.476;2022-09-09T08:38:59;17.50;99.90
42479;DHT22;28110;47.080;9.476;2022-09-09T08:42:03;17.20;99.90
42479;DHT22;28110;47.080;9.476;2022-09-09T08:52:59;17.10;99.90
42479;DHT22;28110;47.080;9.476;2022-09-09T08:55:45;17.10;99.90
42479;DHT22;28110;47.080;9.476;2022-09-09T08:58:23;17.20;99.90
42479;DHT22;28110;47.080;9.476;2022-09-09T09:03:44;17.30;99.90
42479;DHT22;28110;47.080;9.476;2022-09-09T09:09:11;17.30;99.90
42479;DHT22;28110;47.080;9.476;2022-09-09T09:11:54;17.30;99.90
42479;DHT22;28110;47.080;9.476;2022-09-09T09:14:23;17.20;99.90
42479;DHT22;28110;47.080;9.476;2022-09-09T09:19:39;17.30;99.90
42479;DHT22;28110;47.080;9.476;2022-09-09T09:25:02;17.40;99.90
42479;DHT22;28110;47.080;9.476;2022-09-09T09:27:39;17.40;99.90
42479;DHT22;28110;47.080;9.476;2022-09-09T09:30:35;17.50;99.90
42479;DHT22;28110;47.080;9.476;2022-09-09T09:33:15;17.50;99.90
42479;DHT22;28110;47.080;9.476;2022-09-09T09:35:42;17.70;99.90
42479;DHT22;28110;47.080;9.476;2022-09-09T09:38:17;17.90;99.90
42479;DHT22;28110;47.080;9.476;2022-09-09T09:40:54;18.00;99.90
42479;DHT22;28110;47.080;9.476;2022-09-09T09:43:34;18.20;99.90
42479;DHT22;28110;47.080;9.476;2022-09-09T09:46:00;18.20;99.90
42479;DHT22;28110;47.080;9.476;2022-09-09T09:48:28;18.20;99.90
42479;DHT22;28110;47.080;9.476;2022-09-09T09:51:00;18.10;99.90
42479;DHT22;28110;47.080;9.476;2022-09-09T09:53:30;18.10;99.90
42479;DHT22;28110;47.080;9.476;2022-09-09T09:56:01;18.20;99.90
42479;DHT22;28110;47.080;9.476;2022-09-09T09:58:29;18.20;99.90
42479;DHT22;28110;47.080;9.476;2022-09-09T10:00:56;18.20;99.90
42479;DHT22;28110;47.080;9.476;2022-09-09T10:03:29;18.20;99.90
42479;DHT22;28110;47.080;9.476;2022-09-09T10:05:55;18.30;99.90
42479;DHT22;28110;47.080;9.476;2022-09-09T10:08:23;18.20;99.90
42479;DHT22;28110;47.080;9.476;2022-09-09T10:13:30;18.30;99.90
42479;DHT22;28110;47.080;9.476;2022-09-09T10:18:57;18.20;99.90
42479;DHT22;28110;47.080;9.476;2022-09-09T10:26:55;17.90;99.90
42479;DHT22;28110;47.080;9.476;2022-09-09T10:43:12;17.50;99.90
42479;DHT22;28110;47.080;9.476;2022-09-09T10:48:55;17.50;99.90
42479;DHT22;28110;47.080;9.476;2022-09-09T10:51:28;17.40;99.90
42479;DHT22;28110;47.080;9.476;2022-09-09T10:56:36;17.50;99.90
42479;DHT22;28110;47.080;9.476;2022-09-09T11:01:52;17.50;99.90
42479;DHT22;28110;47.080;9.476;2022-09-09T11:04:24;17.50;99.90
42479;DHT22;28110;47.080;9.476;2022-09-09T11:06:54;17.60;99.90
42479;DHT22;28110;47.080;9.476;2022-09-09T11:09:24;17.70;99.90
42479;DHT22;28110;47.080;9.476;2022-09-09T11:11:55;17.80;99.90
42479;DHT22;28110;47.080;9.476;2022-09-09T11:14:31;17.80;99.90
42479;DHT22;28110;47.080;9.476;2022-09-09T11:17:02;17.80;99.90
42479;DHT22;28110;47.080;9.476;2022-09-09T11:19:38;17.90;99.90
42479;DHT22;28110;47.080;9.476;2022-09-09T11:24:46;18.10;99.90
42479;DHT22;28110;47.080;9.476;2022-09-09T11:27:20;18.20;99.90
42479;DHT22;28110;47.080;9.476;2022-09-09T11:30:12;18.30;99.90
42479;DHT22;28110;47.080;9.476;2022-09-09T11:40:46;18.50;99.90
42479;DHT22;28110;47.080;9.476;2022-09-09T11:43:19;18.50;99.90
42479;DHT22;28110;47.080;9.476;2022-09-09T11:45:52;18.60;99.90
42479;DHT22;28110;47.080;9.476;2022-09-09T11:48:42;18.60;99.90
42479;DHT22;28110;47.080;9.476;2022-09-09T11:53:55;18.70;99.90
42479;DHT22;28110;47.080;9.476;2022-09-09T11:56:34;18.70;99.90
42479;DHT22;28110;47.080;9.476;2022-09-09T12:01:46;18.70;99.90
42479;DHT22;28110;47.080;9.476;2022-09-09T12:04:21;18.80;99.90
42479;DHT22;28110;47.080;9.476;2022-09-09T12:09:50;18.70;99.90
42479;DHT22;28110;47.080;9.476;2022-09-09T12:12:30;18.70;99.90
42479;DHT22;28110;47.080;9.476;2022-09-09T12:17:26;18.80;99.90
42479;DHT22;28110;47.080;9.476;2022-09-09T12:20:23;18.90;99.90
42479;DHT22;28110;47.080;9.476;2022-09-09T12:23:15;18.90;99.90
42479;DHT22;28110;47.080;9.476;2022-09-09T12:34:14;18.80;99.90
42479;DHT22;28110;47.080;9.476;2022-09-09T12:36:41;18.80;99.90
42479;DHT22;28110;47.080;9.476;2022-09-09T12:39:47;18.80;99.90
42479;DHT22;28110;47.080;9.476;2022-09-09T12:42:21;18.90;99.90
42479;DHT22;28110;47.080;9.476;2022-09-09T12:50:25;18.90;99.90
42479;DHT22;28110;47.080;9.476;2022-09-09T12:52:54;18.90;99.90
42479;DHT22;28110;47.080;9.476;2022-09-09T12:55:28;18.80;99.90
42479;DHT22;28110;47.080;9.476;2022-09-09T12:57:56;18.90;99.90
42479;DHT22;28110;47.080;9.476;2022-09-09T13:00:24;18.90;99.90
42479;DHT22;28110;47.080;9.476;2022-09-09T13:02:54;18.90;99.90
42479;DHT22;28110;47.080;9.476;2022-09-09T13:05:26;18.90;99.90
42479;DHT22;28110;47.080;9.476;2022-09-09T13:08:04;18.90;99.90
42479;DHT22;28110;47.080;9.476;2022-09-09T13:10:33;18.90;99.90
42479;DHT22;28110;47.080;9.476;2022-09-09T13:13:00;19.00;99.90
42479;DHT22;28110;47.080;9.476;2022-09-09T13:15:28;19.10;99.90
42479;DHT22;28110;47.080;9.476;2022-09-09T13:18:07;19.20;99.90
42479;DHT22;28110;47.080;9.476;2022-09-09T13:20:37;19.30;99.90
42479;DHT22;28110;47.080;9.476;2022-09-09T13:23:03;19.40;99.90
42479;DHT22;28110;47.080;9.476;2022-09-09T13:25:29;19.50;99.90
42479;DHT22;28110;47.080;9.476;2022-09-09T13:27:56;19.60;99.90
42479;DHT22;28110;47.080;9.476;2022-09-09T13:30:27;19.60;99.90
42479;DHT22;28110;47.080;9.476;2022-09-09T13:33:02;19.60;99.90
42479;DHT22;28110;47.080;9.476;2022-09-09T13:35:28;19.60;99.90
42479;DHT22;28110;47.080;9.476;2022-09-09T13:37:54;19.60;99.90
42479;DHT22;28110;47.080;9.476;2022-09-09T13:40:22;19.50;99.90
42479;DHT22;28110;47.080;9.476;2022-09-09T13:42:52;19.50;99.90
42479;DHT22;28110;47.080;9.476;2022-09-09T13:45:21;19.50;99.90
42479;DHT22;28110;47.080;9.476;2022-09-09T13:47:47;19.60;99.90
42479;DHT22;28110;47.080;9.476;2022-09-09T13:52:47;19.50;99.90
42479;DHT22;28110;47.080;9.476;2022-09-09T13:55:14;19.50;99.90
42479;DHT22;28110;47.080;9.476;2022-09-09T13:57:50;19.50;99.90
42479;DHT22;28110;47.080;9.476;2022-09-09T14:00:16;19.50;99.90
42479;DHT22;28110;47.080;9.476;2022-09-09T14:02:41;19.60;99.90
42479;DHT22;28110;47.080;9.476;2022-09-09T14:05:09;19.70;99.90
42479;DHT22;28110;47.080;9.476;2022-09-09T14:07:36;19.70;99.90
42479;DHT22;28110;47.080;9.476;2022-09-09T14:10:04;19.80;99.90
42479;DHT22;28110;47.080;9.476;2022-09-09T14:12:29;19.80;99.90
42479;DHT22;28110;47.080;9.476;2022-09-09T14:14:55;19.90;99.90
42479;DHT22;28110;47.080;9.476;2022-09-09T14:17:21;19.80;99.90
42479;DHT22;28110;47.080;9.476;2022-09-09T14:19:47;19.80;99.90
42479;DHT22;28110;47.080;9.476;2022-09-09T14:22:13;19.80;99.90
42479;DHT22;28110;47.080;9.476;2022-09-09T14:24:39;19.80;99.90
42479;DHT22;28110;47.080;9.476;2022-09-09T14:27:04;19.80;99.90
42479;DHT22;28110;47.080;9.476;2022-09-09T14:29:30;19.70;99.90
42479;DHT22;28110;47.080;9.476;2022-09-09T14:31:55;19.60;99.90
42479;DHT22;28110;47.080;9.476;2022-09-09T14:34:21;19.70;99.90
42479;DHT22;28110;47.080;9.476;2022-09-09T14:36:46;19.60;99.90
42479;DHT22;28110;47.080;9.476;2022-09-09T14:39:12;19.70;99.90
42479;DHT22;28110;47.080;9.476;2022-09-09T14:41:38;19.70;99.90
42479;DHT22;28110;47.080;9.476;2022-09-09T14:44:03;19.60;99.90
42479;DHT22;28110;47.080;9.476;2022-09-09T14:46:29;19.60;99.90
42479;DHT22;28110;47.080;9.476;2022-09-09T14:48:55;19.50;99.90
42479;DHT22;28110;47.080;9.476;2022-09-09T14:51:22;19.50;99.90
42479;DHT22;28110;47.080;9.476;2022-09-09T14:53:51;19.40;99.90
42479;DHT22;28110;47.080;9.476;2022-09-09T14:56:19;19.40;99.90
42479;DHT22;28110;47.080;9.476;2022-09-09T14:58:47;19.50;99.90
42479;DHT22;28110;47.080;9.476;2022-09-09T15:01:16;19.60;99.90
42479;DHT22;28110;47.080;9.476;2022-09-09T15:03:47;19.60;99.90
42479;DHT22;28110;47.080;9.476;2022-09-09T15:06:14;19.60;99.90
42479;DHT22;28110;47.080;9.476;2022-09-09T15:08:44;19.50;99.90
42479;DHT22;28110;47.080;9.476;2022-09-09T15:11:11;19.50;99.90
42479;DHT22;28110;47.080;9.476;2022-09-09T15:13:39;19.40;99.90
42479;DHT22;28110;47.080;9.476;2022-09-09T15:16:14;19.50;99.90
42479;DHT22;28110;47.080;9.476;2022-09-09T15:18:40;19.40;99.90
42479;DHT22;28110;47.080;9.476;2022-09-09T15:21:14;19.40;99.90
42479;DHT22;28110;47.080;9.476;2022-09-09T15:23:41;19.40;99.90
42479;DHT22;28110;47.080;9.476;2022-09-09T15:26:07;19.40;99.90
42479;DHT22;28110;47.080;9.476;2022-09-09T15:28:34;19.40;99.90
42479;DHT22;28110;47.080;9.476;2022-09-09T15:31:09;19.40;99.90
42479;DHT22;28110;47.080;9.476;2022-09-09T15:33:36;19.40;99.90
42479;DHT22;28110;47.080;9.476;2022-09-09T15:36:21;19.40;99.90
42479;DHT22;28110;47.080;9.476;2022-09-09T15:38:48;19.40;99.90
42479;DHT22;28110;47.080;9.476;2022-09-09T15:41:14;19.40;99.90
42479;DHT22;28110;47.080;9.476;2022-09-09T15:43:47;19.40;99.90
42479;DHT22;28110;47.080;9.476;2022-09-09T15:46:28;19.50;99.90
42479;DHT22;28110;47.080;9.476;2022-09-09T15:49:20;19.40;99.90
42479;DHT22;28110;47.080;9.476;2022-09-09T15:51:46;19.40;99.90
42479;DHT22;28110;47.080;9.476;2022-09-09T15:54:14;19.40;99.90
42479;DHT22;28110;47.080;9.476;2022-09-09T15:56:42;19.30;99.90
42479;DHT22;28110;47.080;9.476;2022-09-09T15:59:07;19.30;99.90
42479;DHT22;28110;47.080;9.476;2022-09-09T16:01:34;19.20;99.90
42479;DHT22;28110;47.080;9.476;2022-09-09T16:04:00;19.20;99.90
42479;DHT22;28110;47.080;9.476;2022-09-09T16:06:26;19.10;99.90
42479;DHT22;28110;47.080;9.476;2022-09-09T16:08:54;19.10;99.90
42479;DHT22;28110;47.080;9.476;2022-09-09T16:11:22;19.00;99.90
42479;DHT22;28110;47.080;9.476;2022-09-09T16:13:50;19.00;99.90
42479;DHT22;28110;47.080;9.476;2022-09-09T16:16:17;18.90;99.90
42479;DHT22;28110;47.080;9.476;2022-09-09T16:18:49;18.70;99.90
42479;DHT22;28110;47.080;9.476;2022-09-09T16:21:24;18.50;99.90
42479;DHT22;28110;47.080;9.476;2022-09-09T16:23:51;18.30;99.90
42479;DHT22;28110;47.080;9.476;2022-09-09T16:26:19;18.10;99.90
42479;DHT22;28110;47.080;9.476;2022-09-09T16:28:45;17.90;99.90
42479;DHT22;28110;47.080;9.476;2022-09-09T16:31:16;17.80;99.90
42479;DHT22;28110;47.080;9.476;2022-09-09T16:33:42;17.80;99.90
42479;DHT22;28110;47.080;9.476;2022-09-09T16:36:10;17.70;99.90
42479;DHT22;28110;47.080;9.476;2022-09-09T16:38:37;17.60;99.90
42479;DHT22;28110;47.080;9.476;2022-09-09T16:41:04;17.70;99.90
42479;DHT22;28110;47.080;9.476;2022-09-09T16:43:34;17.60;99.90
42479;DHT22;28110;47.080;9.476;2022-09-09T16:46:01;17.50;99.90
42479;DHT22;28110;47.080;9.476;2022-09-09T16:48:33;17.40;99.90
42479;DHT22;28110;47.080;9.476;2022-09-09T16:51:05;17.30;99.90
42479;DHT22;28110;47.080;9.476;2022-09-09T16:53:32;17.30;99.90
42479;DHT22;28110;47.080;9.476;2022-09-09T16:55:57;17.20;99.90
42479;DHT22;28110;47.080;9.476;2022-09-09T16:58:23;17.20;99.90
42479;DHT22;28110;47.080;9.476;2022-09-09T17:00:49;17.10;99.90
42479;DHT22;28110;47.080;9.476;2022-09-09T17:03:16;16.90;99.90
42479;DHT22;28110;47.080;9.476;2022-09-09T17:05:41;16.90;99.90
42479;DHT22;28110;47.080;9.476;2022-09-09T17:08:08;16.90;99.90
42479;DHT22;28110;47.080;9.476;2022-09-09T17:10:34;17.00;99.90
42479;DHT22;28110;47.080;9.476;2022-09-09T17:13:05;17.00;99.90
42479;DHT22;28110;47.080;9.476;2022-09-09T17:15:30;17.10;99.90
42479;DHT22;28110;47.080;9.476;2022-09-09T17:17:56;17.10;99.90
42479;DHT22;28110;47.080;9.476;2022-09-09T17:20:21;17.00;99.90
42479;DHT22;28110;47.080;9.476;2022-09-09T17:22:47;16.90;99.90
42479;DHT22;28110;47.080;9.476;2022-09-09T17:25:12;16.90;99.90
42479;DHT22;28110;47.080;9.476;2022-09-09T17:27:38;16.80;99.90
42479;DHT22;28110;47.080;9.476;2022-09-09T17:30:04;16.80;99.90
42479;DHT22;28110;47.080;9.476;2022-09-09T17:32:30;16.70;99.90
42479;DHT22;28110;47.080;9.476;2022-09-09T17:34:55;16.70;99.90
42479;DHT22;28110;47.080;9.476;2022-09-09T17:37:21;16.70;99.90
42479;DHT22;28110;47.080;9.476;2022-09-09T17:39:47;16.70;99.90
42479;DHT22;28110;47.080;9.476;2022-09-09T17:42:12;16.70;99.90
42479;DHT22;28110;47.080;9.476;2022-09-09T17:44:38;16.70;99.90
42479;DHT22;28110;47.080;9.476;2022-09-09T17:47:05;16.70;99.90
42479;DHT22;28110;47.080;9.476;2022-09-09T17:49:31;16.70;99.90
42479;DHT22;28110;47.080;9.476;2022-09-09T17:51:57;16.60;99.90